Cambridge — A8HD6 — position and weather

sailwx.info

Track history (hours):
 
Tides and Currents Weather Stations Pressure Air Temp Water Temp Dewpoint Dewpoint Depression Visibility Wind Speed Wind Dir Waves Ship Positions

Cambridge

Last reported at 2017-Oct-15 21:53 UTC. Time now 2017-Nov-20 13:48 UTC.
Position N 27°58' W 016°24'.
Warning: this ship's position is 35 days out of date.

Length 174 m; draft 7.1 m.

Type: Tanker. MMSI: 636012709.

Date/timePositionNaut miles runAvg speedWind from/ knotsBaromVisibWave heightAir tempDewpointWater temp
2017-Oct-15 21:53N 27°58' W 016°24'814.7
2017-Oct-15 21:22N 28°04' W 016°18'615.0
2017-Oct-15 20:59N 28°08' W 016°14'815.2
2017-Oct-15 20:29N 28°13' W 016°08'715.1
2017-Oct-15 20:00N 28°19' W 016°02'714.9
2017-Oct-15 19:30N 28°24' W 015°57'815.7
2017-Oct-15 19:00N 28°31' W 015°52'815.8
2017-Oct-15 18:30N 28°37' W 015°47'815.1
2017-Oct-15 18:00N 28°42' W 015°40'815.0
2017-Oct-15 17:30N 28°48' W 015°34'815.1
2017-Oct-15 17:00N 28°53' W 015°28'815.1
2017-Oct-15 16:30N 28°58' W 015°21'714.9
2017-Oct-15 16:00N 29°03' W 015°15'714.9
2017-Oct-15 15:30N 29°08' W 015°09'815.2
2017-Oct-15 15:00N 29°13' W 015°03'1514.9
2017-Oct-15 14:00N 29°24' W 014°51'714.9
2017-Oct-15 13:30N 29°28' W 014°44'715.0
2017-Oct-15 13:00N 29°34' W 014°38'714.9
2017-Oct-15 12:30N 29°39' W 014°32'714.9
2017-Oct-15 12:00N 29°44' W 014°26'715.0
2017-Oct-15 11:30N 29°49' W 014°19'815.4
2017-Oct-15 11:00N 29°55' W 014°13'815.2
2017-Oct-15 10:30N 29°60' W 014°06'714.9
2017-Oct-15 10:00N 30°04' W 013°60'815.2
2017-Oct-15 09:30N 30°09' W 013°53'815.2
2017-Oct-15 09:00N 30°14' W 013°47'815.1
2017-Oct-15 08:30N 30°19' W 013°40'815.2
2017-Oct-15 08:00N 30°24' W 013°33'814.9
2017-Oct-15 07:27N 30°30' W 013°27'815.1
2017-Oct-15 06:57N 30°36' W 013°21'715.0
2017-Oct-15 06:30N 30°40' W 013°15'714.9
2017-Oct-15 06:00N 30°45' W 013°09'714.7
2017-Oct-15 05:30N 30°50' W 013°02'28515.2
2017-Oct-14 10:42N 34°05' W 008°56'414.9
2017-Oct-14 10:27N 34°08' W 008°52'4515.3
2017-Oct-14 07:29N 34°39' W 008°12'1615.1
2017-Oct-14 06:26N 34°50' W 007°59'814.8
2017-Oct-14 05:55N 34°56' W 007°52'615.1
2017-Oct-14 05:30N 34°60' W 007°46'1015.2
2017-Oct-14 04:53N 35°06' W 007°38'615.3
2017-Oct-14 04:29N 35°10' W 007°32'1415.3
2017-Oct-14 03:33N 35°19' W 007°19'115.0
2017-Oct-14 03:29N 35°20' W 007°18'715.2
2017-Oct-14 03:00N 35°25' W 007°12'815.3
2017-Oct-14 02:30N 35°30' W 007°05'815.2
2017-Oct-14 02:00N 35°36' W 006°58'815.0
2017-Oct-14 01:30N 35°41' W 006°52'17 0.5
2017-Oct-12 16:33N 35°26' W 006°44'0 1.6
2017-Oct-12 16:15N 35°26' W 006°43'  
2017-Oct-08 15:58N 35°49' W 006°44'812.6
2017-Oct-08 15:18N 35°43' W 006°52'513.0
2017-Oct-08 14:57N 35°40' W 006°56'4 8.8
2017-Oct-08 14:29N 35°37' W 006°60'6 2.0
2017-Oct-08 11:37N 35°43' W 007°03'0 1.2
2017-Oct-08 11:23N 35°42' W 007°02'1 1.2
2017-Oct-08 10:57N 35°42' W 007°02'3 1.4
2017-Oct-08 08:55N 35°41' W 006°59'10 2.0
2017-Oct-08 04:03N 35°37' W 006°48'0 1.7
2017-Oct-08 04:00N 35°37' W 006°48'3 1.8
2017-Oct-08 02:29N 35°35' W 006°45'3 7.1
2017-Oct-08 02:00N 35°32' W 006°44'713.9
2017-Oct-08 01:30N 35°25' W 006°45'713.6
2017-Oct-08 01:00N 35°18' W 006°46'40 3.2
2017-Oct-07 12:36N 35°54' W 006°24'39 2.7
2017-Oct-06 22:04N 35°58' W 005°36'110.9
2017-Oct-06 22:00N 35°59' W 005°35'510.2
2017-Oct-06 21:30N 36°00' W 005°29'5 9.1
2017-Oct-06 21:00N 36°01' W 005°24'510.5
2017-Oct-06 20:30N 36°07' W 005°23'2 4.3
2017-Oct-06 20:00N 36°09' W 005°22'0 0.1
2017-Oct-06 16:42N 36°08' W 005°22'0 0.1
2017-Oct-06 16:24N 36°08' W 005°22'0 0.1
2017-Oct-06 14:57N 36°08' W 005°22'0 0.2
2017-Oct-06 14:31N 36°08' W 005°22'0 0.0
2017-Oct-06 13:59N 36°08' W 005°22'0 0.0
2017-Oct-06 01:34N 36°08' W 005°22'0 0.1
2017-Oct-06 01:22N 36°08' W 005°22'0 0.0
2017-Oct-06 00:59N 36°08' W 005°22'0 0.1
2017-Oct-06 00:01N 36°08' W 005°22'2 3.9
2017-Oct-05 23:30N 36°06' W 005°22'2 3.7
2017-Oct-05 23:01N 36°04' W 005°21'1 2.7
2017-Oct-05 22:29N 36°04' W 005°19'1 1.5
2017-Oct-05 22:01N 36°05' W 005°19'  
Track history (hours):
 
Tides and Currents Weather Stations Pressure Air Temp Water Temp Dewpoint Dewpoint Depression Visibility Wind Speed Wind Dir Waves Ship Positions

Cambridge

Last reported at 2017-Oct-15 21:53 UTC. Time now 2017-Nov-20 13:48 UTC.
Position N 27°58' W 016°24'.
Warning: this ship's position is 35 days out of date.

Length 174 m; draft 7.1 m.

Type: Tanker. MMSI: 636012709.

Date/timePositionNaut miles runAvg speedWind from/ knotsBaromVisibWave heightAir tempDewpointWater temp
2017-Oct-15 21:53N 27°58' W 016°24'814.7
2017-Oct-15 21:22N 28°04' W 016°18'615.0
2017-Oct-15 20:59N 28°08' W 016°14'815.2
2017-Oct-15 20:29N 28°13' W 016°08'715.1
2017-Oct-15 20:00N 28°19' W 016°02'714.9
2017-Oct-15 19:30N 28°24' W 015°57'815.7
2017-Oct-15 19:00N 28°31' W 015°52'815.8
2017-Oct-15 18:30N 28°37' W 015°47'815.1
2017-Oct-15 18:00N 28°42' W 015°40'815.0
2017-Oct-15 17:30N 28°48' W 015°34'815.1
2017-Oct-15 17:00N 28°53' W 015°28'815.1
2017-Oct-15 16:30N 28°58' W 015°21'714.9
2017-Oct-15 16:00N 29°03' W 015°15'714.9
2017-Oct-15 15:30N 29°08' W 015°09'815.2
2017-Oct-15 15:00N 29°13' W 015°03'1514.9
2017-Oct-15 14:00N 29°24' W 014°51'714.9
2017-Oct-15 13:30N 29°28' W 014°44'715.0
2017-Oct-15 13:00N 29°34' W 014°38'714.9
2017-Oct-15 12:30N 29°39' W 014°32'714.9
2017-Oct-15 12:00N 29°44' W 014°26'715.0
2017-Oct-15 11:30N 29°49' W 014°19'815.4
2017-Oct-15 11:00N 29°55' W 014°13'815.2
2017-Oct-15 10:30N 29°60' W 014°06'714.9
2017-Oct-15 10:00N 30°04' W 013°60'815.2
2017-Oct-15 09:30N 30°09' W 013°53'815.2
2017-Oct-15 09:00N 30°14' W 013°47'815.1
2017-Oct-15 08:30N 30°19' W 013°40'815.2
2017-Oct-15 08:00N 30°24' W 013°33'814.9
2017-Oct-15 07:27N 30°30' W 013°27'815.1
2017-Oct-15 06:57N 30°36' W 013°21'715.0
2017-Oct-15 06:30N 30°40' W 013°15'714.9
2017-Oct-15 06:00N 30°45' W 013°09'714.7
2017-Oct-15 05:30N 30°50' W 013°02'28515.2
2017-Oct-14 10:42N 34°05' W 008°56'414.9
2017-Oct-14 10:27N 34°08' W 008°52'4515.3
2017-Oct-14 07:29N 34°39' W 008°12'1615.1
2017-Oct-14 06:26N 34°50' W 007°59'814.8
2017-Oct-14 05:55N 34°56' W 007°52'615.1
2017-Oct-14 05:30N 34°60' W 007°46'1015.2
2017-Oct-14 04:53N 35°06' W 007°38'615.3
2017-Oct-14 04:29N 35°10' W 007°32'1415.3
2017-Oct-14 03:33N 35°19' W 007°19'115.0
2017-Oct-14 03:29N 35°20' W 007°18'715.2
2017-Oct-14 03:00N 35°25' W 007°12'815.3
2017-Oct-14 02:30N 35°30' W 007°05'815.2
2017-Oct-14 02:00N 35°36' W 006°58'815.0
2017-Oct-14 01:30N 35°41' W 006°52'17 0.5
2017-Oct-12 16:33N 35°26' W 006°44'0 1.6
2017-Oct-12 16:15N 35°26' W 006°43'  
2017-Oct-08 15:58N 35°49' W 006°44'812.6
2017-Oct-08 15:18N 35°43' W 006°52'513.0
2017-Oct-08 14:57N 35°40' W 006°56'4 8.8
2017-Oct-08 14:29N 35°37' W 006°60'6 2.0
2017-Oct-08 11:37N 35°43' W 007°03'0 1.2
2017-Oct-08 11:23N 35°42' W 007°02'1 1.2
2017-Oct-08 10:57N 35°42' W 007°02'3 1.4
2017-Oct-08 08:55N 35°41' W 006°59'10 2.0
2017-Oct-08 04:03N 35°37' W 006°48'0 1.7
2017-Oct-08 04:00N 35°37' W 006°48'3 1.8
2017-Oct-08 02:29N 35°35' W 006°45'3 7.1
2017-Oct-08 02:00N 35°32' W 006°44'713.9
2017-Oct-08 01:30N 35°25' W 006°45'713.6
2017-Oct-08 01:00N 35°18' W 006°46'40 3.2
2017-Oct-07 12:36N 35°54' W 006°24'39 2.7
2017-Oct-06 22:04N 35°58' W 005°36'110.9
2017-Oct-06 22:00N 35°59' W 005°35'510.2
2017-Oct-06 21:30N 36°00' W 005°29'5 9.1
2017-Oct-06 21:00N 36°01' W 005°24'510.5
2017-Oct-06 20:30N 36°07' W 005°23'2 4.3
2017-Oct-06 20:00N 36°09' W 005°22'0 0.1
2017-Oct-06 16:42N 36°08' W 005°22'0 0.1
2017-Oct-06 16:24N 36°08' W 005°22'0 0.1
2017-Oct-06 14:57N 36°08' W 005°22'0 0.2
2017-Oct-06 14:31N 36°08' W 005°22'0 0.0
2017-Oct-06 13:59N 36°08' W 005°22'0 0.0
2017-Oct-06 01:34N 36°08' W 005°22'0 0.1
2017-Oct-06 01:22N 36°08' W 005°22'0 0.0
2017-Oct-06 00:59N 36°08' W 005°22'0 0.1
2017-Oct-06 00:01N 36°08' W 005°22'2 3.9
2017-Oct-05 23:30N 36°06' W 005°22'2 3.7
2017-Oct-05 23:01N 36°04' W 005°21'1 2.7
2017-Oct-05 22:29N 36°04' W 005°19'1 1.5
2017-Oct-05 22:01N 36°05' W 005°19'  

Dump ship's entire track history